createdAt,value
2022-10-04T00:01:09.496Z,5.04
2022-10-04T00:03:47.293Z,5.00
2022-10-04T00:06:20.331Z,4.91
2022-10-04T00:08:56.262Z,4.90
2022-10-04T00:11:29.440Z,4.86
2022-10-04T00:13:59.711Z,4.85
2022-10-04T00:16:33.254Z,4.81
2022-10-04T00:19:04.282Z,4.77
2022-10-04T00:21:49.350Z,4.74
2022-10-04T00:24:22.786Z,4.67
2022-10-04T00:27:12.922Z,4.65
2022-10-04T00:29:43.172Z,4.62
2022-10-04T00:32:30.053Z,4.60
2022-10-04T00:34:59.138Z,4.59
2022-10-04T00:37:28.721Z,4.59
2022-10-04T00:40:12.785Z,4.58
2022-10-04T00:42:47.324Z,4.64
2022-10-04T00:45:27.938Z,4.68
2022-10-04T00:48:12.916Z,4.78
2022-10-04T00:50:44.451Z,4.82
2022-10-04T00:53:20.190Z,4.76
2022-10-04T00:55:55.471Z,4.68
2022-10-04T00:58:28.207Z,4.66
2022-10-04T01:00:58.766Z,4.66
2022-10-04T01:03:34.394Z,4.44
2022-10-04T01:06:05.753Z,4.64
2022-10-04T01:08:39.840Z,4.60
2022-10-04T01:11:14.507Z,4.53
2022-10-04T01:13:50.185Z,4.50
2022-10-04T01:16:20.563Z,4.52
2022-10-04T01:18:50.279Z,4.56
2022-10-04T01:21:29.642Z,4.54
2022-10-04T01:24:22.166Z,4.47
2022-10-04T01:26:50.391Z,4.46
2022-10-04T01:29:20.312Z,4.53
2022-10-04T01:31:51.202Z,4.50
2022-10-04T01:34:21.406Z,4.53
2022-10-04T01:36:52.610Z,4.51
2022-10-04T01:39:24.355Z,4.53
2022-10-04T01:41:58.402Z,4.47
2022-10-04T01:44:32.881Z,4.60
2022-10-04T01:47:05.274Z,4.65
2022-10-04T01:49:36.936Z,4.60
2022-10-04T01:52:11.272Z,4.54
2022-10-04T01:54:44.095Z,4.53
2022-10-04T01:57:17.929Z,4.54
2022-10-04T01:59:51.298Z,4.63
2022-10-04T02:02:23.187Z,4.69
2022-10-04T02:04:55.703Z,4.82
2022-10-04T02:07:26.509Z,4.78
2022-10-04T02:10:00.525Z,4.73
2022-10-04T02:12:31.345Z,4.75
2022-10-04T02:15:06.122Z,4.85
2022-10-04T02:17:39.690Z,4.84
2022-10-04T02:22:12.488Z,4.78
2022-10-04T02:24:43.916Z,4.76
2022-10-04T02:27:17.649Z,4.75
2022-10-04T02:29:46.768Z,4.77
2022-10-04T02:32:33.438Z,4.75
2022-10-04T02:35:01.532Z,4.75
2022-10-04T02:37:34.364Z,4.76
2022-10-04T02:40:10.524Z,4.84
2022-10-04T02:42:48.211Z,4.77
2022-10-04T02:45:21.158Z,4.71
2022-10-04T02:47:54.382Z,4.68
2022-10-04T02:50:30.700Z,4.60
2022-10-04T02:53:11.555Z,4.59
2022-10-04T02:55:39.982Z,4.66
2022-10-04T02:58:12.349Z,4.79
2022-10-04T03:00:48.001Z,4.83
2022-10-04T03:03:24.687Z,4.90
2022-10-04T03:06:02.059Z,4.99
2022-10-04T03:08:37.897Z,5.00
2022-10-04T03:11:09.643Z,5.00
2022-10-04T03:13:39.605Z,5.04
2022-10-04T03:16:07.907Z,5.06
2022-10-04T03:18:37.934Z,5.07
2022-10-04T03:21:09.563Z,5.04
2022-10-04T03:23:41.031Z,5.07
2022-10-04T03:26:20.808Z,5.09
2022-10-04T03:28:54.176Z,5.18
2022-10-04T03:31:27.736Z,5.18
2022-10-04T03:33:58.398Z,5.25
2022-10-04T03:36:28.419Z,5.24
2022-10-04T03:38:59.678Z,5.24
2022-10-04T03:41:28.180Z,5.21
2022-10-04T03:44:01.422Z,5.18
2022-10-04T03:46:32.403Z,5.17
2022-10-04T03:49:03.538Z,5.18
2022-10-04T03:51:32.216Z,5.14
2022-10-04T03:54:03.398Z,5.21
2022-10-04T03:56:35.106Z,5.23
2022-10-04T03:59:07.362Z,5.21
2022-10-04T04:01:39.999Z,5.18
2022-10-04T04:04:19.720Z,5.16
2022-10-04T04:06:57.980Z,5.16
2022-10-04T04:09:37.942Z,5.16
2022-10-04T04:12:11.530Z,5.18
2022-10-04T04:14:42.015Z,5.14
2022-10-04T04:17:20.472Z,5.17
2022-10-04T04:19:48.508Z,5.15
2022-10-04T04:22:19.061Z,5.19
2022-10-04T04:24:50.448Z,5.13
2022-10-04T04:27:24.817Z,5.20
2022-10-04T04:30:01.389Z,5.16
2022-10-04T04:32:34.813Z,5.20
2022-10-04T04:35:07.823Z,5.22
2022-10-04T04:37:36.403Z,5.17
2022-10-04T04:40:21.818Z,5.15
2022-10-04T04:42:53.959Z,5.10
2022-10-04T04:45:26.558Z,5.08
2022-10-04T04:47:57.364Z,5.03
2022-10-04T04:50:31.172Z,5.01
2022-10-04T04:53:06.268Z,4.99
2022-10-04T04:56:02.348Z,4.89
2022-10-04T04:58:33.224Z,4.92
2022-10-04T05:01:04.294Z,4.92
2022-10-04T05:03:34.177Z,4.93
2022-10-04T05:06:04.665Z,4.92
2022-10-04T05:08:41.106Z,4.98
2022-10-04T05:11:17.021Z,4.97
2022-10-04T05:13:49.602Z,4.91
2022-10-04T05:16:22.247Z,4.91
2022-10-04T05:18:57.452Z,4.94
2022-10-04T05:21:29.616Z,4.91
2022-10-04T05:23:59.352Z,4.88
2022-10-04T05:26:31.962Z,4.88
2022-10-04T05:29:08.553Z,4.87
2022-10-04T05:31:46.702Z,4.83
2022-10-04T05:34:23.103Z,4.79
2022-10-04T05:37:06.989Z,4.81
2022-10-04T05:39:44.202Z,4.81
2022-10-04T05:42:22.370Z,4.81
2022-10-04T05:44:52.791Z,4.85
2022-10-04T05:47:24.279Z,4.82
2022-10-04T05:49:55.711Z,4.94
2022-10-04T05:52:30.545Z,5.00
2022-10-04T05:55:22.827Z,5.08
2022-10-04T05:58:25.392Z,5.11
2022-10-04T06:01:11.449Z,5.20
2022-10-04T06:03:50.327Z,5.32
2022-10-04T06:06:25.835Z,5.35
2022-10-04T06:09:07.262Z,5.49
2022-10-04T06:11:48.760Z,5.63
2022-10-04T06:14:45.685Z,5.76
2022-10-04T06:17:40.089Z,5.80
2022-10-04T06:20:39.056Z,5.90
2022-10-04T06:23:16.869Z,5.97
2022-10-04T06:25:52.518Z,6.02
2022-10-04T06:28:25.433Z,6.04
2022-10-04T06:31:14.364Z,6.07
2022-10-04T06:34:04.871Z,6.10
2022-10-04T06:36:52.588Z,6.13
2022-10-04T06:39:55.107Z,6.18
2022-10-04T06:42:46.617Z,6.20
2022-10-04T06:45:30.074Z,6.29
2022-10-04T06:48:19.065Z,6.12
2022-10-04T06:50:51.434Z,6.29
2022-10-04T06:53:27.833Z,6.36
2022-10-04T06:56:09.459Z,6.46
2022-10-04T06:59:07.894Z,6.50
2022-10-04T07:01:47.528Z,6.52
2022-10-04T07:04:25.423Z,6.47
2022-10-04T07:10:29.766Z,6.61
2022-10-04T07:13:10.556Z,6.56
2022-10-04T07:15:47.530Z,6.56
2022-10-04T07:18:58.733Z,6.66
2022-10-04T07:23:28.269Z,6.80
2022-10-04T07:26:02.970Z,6.81
2022-10-04T07:28:51.964Z,6.87
2022-10-04T07:31:27.598Z,6.98
2022-10-04T07:33:59.323Z,7.09
2022-10-04T07:36:32.449Z,7.32
2022-10-04T07:39:10.841Z,7.28
2022-10-04T07:41:47.954Z,7.57
2022-10-04T07:44:24.099Z,7.65
2022-10-04T07:46:57.359Z,7.86
2022-10-04T07:49:27.015Z,8.12
2022-10-04T07:52:06.541Z,8.21
2022-10-04T07:54:42.461Z,8.51
2022-10-04T07:57:22.481Z,8.74
2022-10-04T08:00:03.649Z,8.78
2022-10-04T08:02:48.089Z,8.83
2022-10-04T08:05:24.446Z,8.67
2022-10-04T08:08:28.689Z,8.72
2022-10-04T08:11:17.398Z,8.57
2022-10-04T08:13:53.354Z,8.84
2022-10-04T08:16:36.280Z,8.67
2022-10-04T08:19:25.844Z,8.68
2022-10-04T08:22:03.294Z,8.91
2022-10-04T08:24:36.682Z,9.13
2022-10-04T08:27:18.998Z,9.34
2022-10-04T08:30:04.742Z,9.57
2022-10-04T08:32:53.073Z,9.83
2022-10-04T08:35:36.341Z,9.76
2022-10-04T08:38:35.269Z,9.81
2022-10-04T08:41:46.088Z,9.95
2022-10-04T08:44:54.270Z,10.98
2022-10-04T08:47:56.066Z,10.65
2022-10-04T08:50:59.921Z,11.35
2022-10-04T08:54:18.797Z,11.17
2022-10-04T08:57:16.449Z,11.12
2022-10-04T09:00:15.205Z,11.59
2022-10-04T09:03:28.651Z,11.93
2022-10-04T09:06:11.909Z,12.21
2022-10-04T09:09:26.673Z,12.67
2022-10-04T09:12:20.322Z,12.64
2022-10-04T09:15:23.182Z,12.56
2022-10-04T09:17:56.573Z,12.11
2022-10-04T09:20:39.337Z,11.96
2022-10-04T09:23:13.851Z,11.39
2022-10-04T09:25:50.109Z,12.07
2022-10-04T09:29:01.146Z,13.62
2022-10-04T09:31:56.091Z,15.86
2022-10-04T09:34:38.865Z,16.87
2022-10-04T09:37:30.269Z,16.58
2022-10-04T09:40:22.436Z,18.27
2022-10-04T09:43:28.681Z,17.71
2022-10-04T09:46:12.287Z,18.35
2022-10-04T09:48:56.417Z,18.53
2022-10-04T09:51:50.300Z,18.24
2022-10-04T09:54:43.678Z,18.53
2022-10-04T09:57:28.095Z,18.73
2022-10-04T10:00:25.203Z,17.67
2022-10-04T10:03:42.239Z,18.63
2022-10-04T10:06:42.425Z,17.46
2022-10-04T10:09:44.063Z,18.35
2022-10-04T10:12:49.647Z,17.64
2022-10-04T10:15:28.942Z,17.47
2022-10-04T10:18:02.629Z,16.57
2022-10-04T10:20:50.350Z,17.51
2022-10-04T10:23:50.763Z,17.23
2022-10-04T10:26:34.009Z,17.33
2022-10-04T10:29:17.081Z,16.33
2022-10-04T10:32:01.303Z,16.70
2022-10-04T10:34:52.373Z,17.36
2022-10-04T10:37:34.986Z,17.92
2022-10-04T10:40:33.288Z,18.28
2022-10-04T10:43:31.012Z,20.67
2022-10-04T10:46:19.300Z,19.74
2022-10-04T10:49:09.982Z,19.30
2022-10-04T10:52:06.343Z,19.39
2022-10-04T10:55:06.246Z,19.36
2022-10-04T10:58:00.039Z,19.64
2022-10-04T11:00:44.044Z,19.61
2022-10-04T11:03:32.282Z,20.20
2022-10-04T11:06:30.276Z,20.59
2022-10-04T11:09:30.666Z,19.70
2022-10-04T11:12:29.831Z,20.05
2022-10-04T11:15:36.236Z,20.53
2022-10-04T11:18:45.417Z,20.59
2022-10-04T11:22:07.378Z,20.44
2022-10-04T11:24:55.216Z,21.40
2022-10-04T11:27:47.837Z,20.25
2022-10-04T11:30:25.113Z,20.53
2022-10-04T11:33:43.265Z,20.44
2022-10-04T11:36:44.931Z,19.89
2022-10-04T11:39:45.196Z,19.73
2022-10-04T11:42:26.362Z,20.26
2022-10-04T11:45:07.628Z,21.43
2022-10-04T11:48:00.838Z,21.76
2022-10-04T11:50:38.883Z,22.23
2022-10-04T11:53:56.283Z,21.32
2022-10-04T11:56:50.805Z,21.19
2022-10-04T11:59:29.612Z,21.29
2022-10-04T12:02:37.827Z,22.03
2022-10-04T12:05:39.334Z,22.53
2022-10-04T12:08:21.572Z,21.28
2022-10-04T12:12:09.472Z,21.88
2022-10-04T12:15:04.519Z,20.08
2022-10-04T12:18:06.966Z,18.92
2022-10-04T12:24:33.248Z,18.64
2022-10-04T12:27:19.854Z,18.59
2022-10-04T12:30:17.521Z,17.46
2022-10-04T12:32:57.808Z,17.30
2022-10-04T12:35:35.484Z,16.96
2022-10-04T12:38:19.565Z,16.82
2022-10-04T12:40:56.067Z,17.12
2022-10-04T12:43:33.240Z,17.24
2022-10-04T12:46:17.786Z,17.42
2022-10-04T12:48:58.844Z,17.29
2022-10-04T12:51:38.271Z,17.11
2022-10-04T12:54:18.968Z,16.97
2022-10-04T12:56:56.757Z,16.64
2022-10-04T12:59:43.178Z,16.76
2022-10-04T13:02:28.185Z,16.52
2022-10-04T13:05:02.688Z,16.63
2022-10-04T13:07:51.438Z,16.63
2022-10-04T13:10:33.572Z,16.69
2022-10-04T13:13:37.008Z,16.83
2022-10-04T13:19:14.323Z,17.10
2022-10-04T13:22:06.991Z,16.79
2022-10-04T13:24:56.224Z,16.70
2022-10-04T13:27:32.013Z,16.84
2022-10-04T13:30:08.666Z,16.83
2022-10-04T13:32:43.803Z,16.74
2022-10-04T13:35:20.948Z,16.73
2022-10-04T13:38:05.450Z,16.72
2022-10-04T13:40:56.103Z,16.78
2022-10-04T13:43:56.932Z,16.66
2022-10-04T13:46:41.902Z,16.75
2022-10-04T13:49:27.990Z,16.62
2022-10-04T13:52:27.235Z,16.83
2022-10-04T13:55:30.788Z,16.85
2022-10-04T13:58:12.657Z,16.50
2022-10-04T14:01:02.838Z,16.64
2022-10-04T14:03:47.035Z,16.68
2022-10-04T14:06:44.665Z,16.49
2022-10-04T14:09:29.371Z,16.47
2022-10-04T14:12:47.780Z,16.38
2022-10-04T14:15:55.459Z,16.34
2022-10-04T14:18:50.083Z,16.37
2022-10-04T14:21:57.224Z,16.45
2022-10-04T14:24:59.000Z,16.49
2022-10-04T14:28:14.336Z,16.42
2022-10-04T14:30:54.016Z,16.57
2022-10-04T14:33:51.063Z,16.55
2022-10-04T14:37:01.130Z,16.50
2022-10-04T14:39:56.021Z,16.51
2022-10-04T14:42:52.149Z,16.42
2022-10-04T14:45:29.312Z,16.44
2022-10-04T14:48:42.509Z,16.24
2022-10-04T14:51:54.043Z,16.53
2022-10-04T14:54:37.507Z,16.53
2022-10-04T14:57:12.251Z,16.54
2022-10-04T15:00:20.340Z,16.50
2022-10-04T15:03:30.558Z,16.55
2022-10-04T15:06:10.330Z,16.49
2022-10-04T15:09:21.084Z,16.39
2022-10-04T15:15:20.826Z,16.48
2022-10-04T15:18:00.155Z,16.48
2022-10-04T15:20:35.324Z,16.41
2022-10-04T15:23:16.069Z,16.41
2022-10-04T15:25:51.955Z,16.34
2022-10-04T15:28:42.250Z,16.29
2022-10-04T15:31:18.597Z,16.21
2022-10-04T15:34:00.262Z,16.14
2022-10-04T15:36:47.247Z,16.15
2022-10-04T15:39:41.064Z,16.07
2022-10-04T15:42:15.995Z,16.04
2022-10-04T15:45:09.251Z,15.98
2022-10-04T15:47:56.725Z,15.90
2022-10-04T15:50:30.238Z,15.84
2022-10-04T15:53:19.776Z,15.82
2022-10-04T15:56:03.027Z,15.72
2022-10-04T15:58:52.742Z,15.63
2022-10-04T16:01:46.125Z,15.63
2022-10-04T16:04:31.135Z,15.55
2022-10-04T16:07:22.093Z,15.57
2022-10-04T16:09:59.184Z,15.51
2022-10-04T16:12:33.032Z,15.43
2022-10-04T16:15:20.796Z,15.31
2022-10-04T16:18:15.704Z,15.25
2022-10-04T16:21:06.224Z,15.10
2022-10-04T16:23:39.208Z,15.02
2022-10-04T16:26:10.863Z,14.91
2022-10-04T16:29:00.747Z,14.77
2022-10-04T16:31:44.761Z,14.71
2022-10-04T16:34:48.018Z,14.63
2022-10-04T16:37:29.892Z,14.44
2022-10-04T16:40:05.671Z,14.25
2022-10-04T16:42:50.240Z,14.06
2022-10-04T16:45:38.509Z,13.91
2022-10-04T16:48:24.500Z,13.78
2022-10-04T16:51:17.088Z,13.61
2022-10-04T16:53:52.124Z,13.51
2022-10-04T16:56:24.064Z,13.34
2022-10-04T16:59:00.791Z,13.17
2022-10-04T17:01:45.773Z,13.05
2022-10-04T17:04:40.724Z,12.94
2022-10-04T17:07:23.235Z,12.83
2022-10-04T17:09:59.746Z,12.72
2022-10-04T17:12:37.277Z,12.66
2022-10-04T17:15:27.842Z,12.60
2022-10-04T17:18:04.773Z,12.51
2022-10-04T17:20:49.355Z,12.42
2022-10-04T17:25:32.877Z,12.21
2022-10-04T17:28:14.464Z,12.14
2022-10-04T17:30:53.520Z,12.07
2022-10-04T17:33:32.239Z,12.03
2022-10-04T17:36:34.361Z,11.93
2022-10-04T17:39:23.752Z,11.83
2022-10-04T17:42:10.009Z,11.77
2022-10-04T17:44:59.450Z,11.67
2022-10-04T17:47:50.940Z,11.57
2022-10-04T17:50:41.124Z,11.49
2022-10-04T17:53:49.272Z,11.43
2022-10-04T17:56:30.776Z,11.37
2022-10-04T17:59:06.719Z,11.29
2022-10-04T18:01:43.855Z,11.26
2022-10-04T18:04:20.148Z,11.24
2022-10-04T18:06:54.711Z,11.02
2022-10-04T18:09:46.619Z,11.14
2022-10-04T18:12:27.209Z,11.08
2022-10-04T18:15:07.191Z,11.01
2022-10-04T18:17:41.764Z,10.95
2022-10-04T18:20:27.726Z,10.89
2022-10-04T18:23:02.182Z,10.83
2022-10-04T18:25:32.242Z,10.79
2022-10-04T18:28:13.107Z,10.73
2022-10-04T18:30:59.134Z,10.73
2022-10-04T18:33:46.067Z,10.68
2022-10-04T18:36:19.171Z,10.64
2022-10-04T18:39:03.666Z,10.62
2022-10-04T18:41:55.091Z,10.58
2022-10-04T18:44:27.456Z,10.55
2022-10-04T18:46:59.382Z,10.50
2022-10-04T18:49:33.733Z,10.48
2022-10-04T18:52:10.131Z,10.44
2022-10-04T18:54:45.742Z,10.40
2022-10-04T18:57:26.752Z,10.34
2022-10-04T19:00:22.897Z,10.28
2022-10-04T19:03:07.939Z,10.21
2022-10-04T19:05:44.545Z,10.17
2022-10-04T19:08:28.987Z,10.14
2022-10-04T19:11:04.183Z,10.08
2022-10-04T19:13:41.386Z,10.05
2022-10-04T19:16:25.951Z,10.03
2022-10-04T19:19:05.773Z,9.97
2022-10-04T19:21:47.696Z,9.93
2022-10-04T19:24:34.888Z,9.87
2022-10-04T19:27:07.025Z,9.83
2022-10-04T19:29:49.554Z,9.79
2022-10-04T19:32:28.597Z,9.74
2022-10-04T19:35:09.425Z,9.69
2022-10-04T19:38:04.060Z,9.66
2022-10-04T19:40:42.299Z,9.61
2022-10-04T19:43:18.130Z,9.53
2022-10-04T19:46:03.622Z,9.45
2022-10-04T19:48:40.389Z,9.41
2022-10-04T19:51:17.196Z,9.36
2022-10-04T19:53:51.572Z,9.36
2022-10-04T19:56:21.655Z,9.28
2022-10-04T19:59:00.732Z,9.24
2022-10-04T20:01:29.794Z,9.18
2022-10-04T20:04:18.622Z,9.13
2022-10-04T20:06:55.881Z,9.08
2022-10-04T20:10:08.550Z,9.05
2022-10-04T20:12:41.456Z,8.98
2022-10-04T20:15:40.104Z,8.91
2022-10-04T20:18:41.940Z,8.85
2022-10-04T20:21:11.662Z,8.82
2022-10-04T20:23:56.690Z,8.82
2022-10-04T20:26:55.053Z,8.80
2022-10-04T20:30:05.874Z,8.74
2022-10-04T20:33:02.197Z,8.65
2022-10-04T20:35:59.759Z,8.60
2022-10-04T20:38:46.709Z,8.52
2022-10-04T20:42:03.055Z,8.53
2022-10-04T20:44:42.949Z,8.53
2022-10-04T20:47:23.975Z,8.50
2022-10-04T20:49:53.284Z,8.45
2022-10-04T20:52:22.447Z,8.38
2022-10-04T20:54:53.886Z,8.30
2022-10-04T20:57:24.149Z,8.26
2022-10-04T20:59:55.378Z,8.21
2022-10-04T21:02:28.660Z,8.16
2022-10-04T21:05:13.639Z,8.17
2022-10-04T21:07:42.314Z,8.16
2022-10-04T21:10:18.940Z,8.15
2022-10-04T21:12:49.663Z,8.12
2022-10-04T21:15:23.610Z,8.15
2022-10-04T21:18:04.714Z,8.10
2022-10-04T21:20:44.228Z,8.05
2022-10-04T21:23:18.780Z,8.04
2022-10-04T21:25:46.780Z,8.08
2022-10-04T21:28:31.884Z,7.99
2022-10-04T21:31:01.406Z,7.85
2022-10-04T21:33:29.336Z,7.97
2022-10-04T21:35:57.257Z,8.16
2022-10-04T21:38:28.530Z,8.14
2022-10-04T21:40:58.830Z,8.15
2022-10-04T21:43:28.478Z,8.06
2022-10-04T21:45:56.715Z,7.94
2022-10-04T21:48:27.667Z,7.87
2022-10-04T21:50:56.525Z,7.82
2022-10-04T21:53:24.539Z,7.82
2022-10-04T21:55:52.623Z,7.75
2022-10-04T21:58:20.657Z,7.69
2022-10-04T22:00:50.720Z,7.64
2022-10-04T22:03:19.039Z,7.58
2022-10-04T22:06:07.373Z,7.52
2022-10-04T22:08:35.484Z,7.51
2022-10-04T22:11:03.514Z,7.63
2022-10-04T22:13:31.567Z,7.68
2022-10-04T22:16:05.290Z,7.64
2022-10-04T22:18:33.684Z,7.68
2022-10-04T22:21:02.061Z,7.69
2022-10-04T22:26:17.282Z,7.62
2022-10-04T22:28:48.077Z,7.58
2022-10-04T22:31:18.299Z,7.55
2022-10-04T22:33:48.579Z,7.62
2022-10-04T22:36:20.241Z,7.60
2022-10-04T22:38:57.506Z,7.55
2022-10-04T22:41:30.246Z,7.49
2022-10-04T22:43:59.672Z,7.49
2022-10-04T22:46:34.552Z,7.44
2022-10-04T22:49:11.249Z,7.48
2022-10-04T22:51:42.460Z,7.54
2022-10-04T22:54:12.760Z,7.57
2022-10-04T22:56:47.946Z,7.63
2022-10-04T22:59:19.534Z,7.71
2022-10-04T23:01:47.828Z,7.73
2022-10-04T23:04:21.860Z,7.72
2022-10-04T23:06:50.588Z,7.71
2022-10-04T23:09:18.973Z,7.69
2022-10-04T23:11:48.601Z,7.73
2022-10-04T23:14:16.660Z,7.75
2022-10-04T23:16:45.367Z,7.76
2022-10-04T23:19:15.825Z,7.75
2022-10-04T23:21:48.618Z,7.69
2022-10-04T23:24:18.994Z,7.71
2022-10-04T23:26:56.671Z,7.71
2022-10-04T23:29:27.216Z,7.73
2022-10-04T23:31:56.924Z,7.75
2022-10-04T23:34:28.626Z,7.73
2022-10-04T23:37:00.135Z,7.64
2022-10-04T23:39:31.080Z,7.68
2022-10-04T23:42:01.232Z,7.74
2022-10-04T23:44:35.101Z,7.77
2022-10-04T23:47:12.490Z,7.69
2022-10-04T23:49:43.734Z,7.69
2022-10-04T23:52:19.115Z,7.63
2022-10-04T23:54:48.196Z,7.62
2022-10-04T23:57:27.988Z,7.60
2022-10-04T23:59:56.493Z,7.65
